sensor_id;sensor_type;location;lat;lon;timestamp;pressure;altitude;pressure_sealevel;temperature;humidity
44027;BME280;29696;55.698;37.460;2022-08-19T00:01:43;100127.44;;;22.37;42.42
44027;BME280;29696;55.698;37.460;2022-08-19T00:04:11;100131.34;;;22.34;43.08
44027;BME280;29696;55.698;37.460;2022-08-19T00:06:40;100123.50;;;22.33;43.24
44027;BME280;29696;55.698;37.460;2022-08-19T00:09:10;100130.09;;;22.30;43.74
44027;BME280;29696;55.698;37.460;2022-08-19T00:11:37;100129.84;;;22.25;43.80
44027;BME280;29696;55.698;37.460;2022-08-19T00:14:05;100127.56;;;22.22;44.61
44027;BME280;29696;55.698;37.460;2022-08-19T00:16:32;100120.53;;;22.21;44.39
44027;BME280;29696;55.698;37.460;2022-08-19T00:18:59;100127.50;;;22.16;44.55
44027;BME280;29696;55.698;37.460;2022-08-19T00:21:26;100128.09;;;22.11;45.06
44027;BME280;29696;55.698;37.460;2022-08-19T00:23:54;100132.84;;;22.09;45.37
44027;BME280;29696;55.698;37.460;2022-08-19T00:26:20;100124.53;;;22.04;45.75
44027;BME280;29696;55.698;37.460;2022-08-19T00:28:46;100126.78;;;22.00;45.96
44027;BME280;29696;55.698;37.460;2022-08-19T00:31:13;100132.75;;;21.96;46.12
44027;BME280;29696;55.698;37.460;2022-08-19T00:33:39;100133.13;;;21.93;46.41
44027;BME280;29696;55.698;37.460;2022-08-19T00:36:07;100136.22;;;21.89;46.72
44027;BME280;29696;55.698;37.460;2022-08-19T00:38:36;100136.59;;;21.86;46.73
44027;BME280;29696;55.698;37.460;2022-08-19T00:41:03;100132.00;;;21.80;46.75
44027;BME280;29696;55.698;37.460;2022-08-19T00:43:31;100140.06;;;21.80;47.10
44027;BME280;29696;55.698;37.460;2022-08-19T00:45:57;100131.56;;;21.77;47.46
44027;BME280;29696;55.698;37.460;2022-08-19T00:48:23;100137.34;;;21.74;47.25
44027;BME280;29696;55.698;37.460;2022-08-19T00:50:51;100140.03;;;21.74;47.45
44027;BME280;29696;55.698;37.460;2022-08-19T00:53:22;100143.53;;;21.74;47.42
44027;BME280;29696;55.698;37.460;2022-08-19T00:55:52;100146.88;;;21.76;47.36
44027;BME280;29696;55.698;37.460;2022-08-19T00:58:21;100155.97;;;21.75;47.58
44027;BME280;29696;55.698;37.460;2022-08-19T01:00:48;100158.03;;;21.73;47.47
44027;BME280;29696;55.698;37.460;2022-08-19T01:03:17;100162.75;;;21.71;47.55
44027;BME280;29696;55.698;37.460;2022-08-19T01:05:45;100164.81;;;21.69;47.73
44027;BME280;29696;55.698;37.460;2022-08-19T01:08:14;100168.09;;;21.64;47.82
44027;BME280;29696;55.698;37.460;2022-08-19T01:10:45;100163.09;;;21.61;47.90
44027;BME280;29696;55.698;37.460;2022-08-19T01:13:19;100178.00;;;21.64;47.79
44027;BME280;29696;55.698;37.460;2022-08-19T01:15:53;100178.41;;;21.61;48.06
44027;BME280;29696;55.698;37.460;2022-08-19T01:18:21;100176.22;;;21.50;47.96
44027;BME280;29696;55.698;37.460;2022-08-19T01:20:48;100177.63;;;21.46;48.01
44027;BME280;29696;55.698;37.460;2022-08-19T01:23:15;100179.03;;;21.41;48.47
44027;BME280;29696;55.698;37.460;2022-08-19T01:25:48;100179.22;;;21.40;48.30
44027;BME280;29696;55.698;37.460;2022-08-19T01:28:19;100171.22;;;21.47;47.92
44027;BME280;29696;55.698;37.460;2022-08-19T01:30:46;100174.25;;;21.22;48.93
44027;BME280;29696;55.698;37.460;2022-08-19T01:33:13;100176.06;;;21.15;49.04
44027;BME280;29696;55.698;37.460;2022-08-19T01:35:40;100169.56;;;21.09;49.22
44027;BME280;29696;55.698;37.460;2022-08-19T01:38:10;100179.00;;;21.05;49.33
44027;BME280;29696;55.698;37.460;2022-08-19T01:40:38;100177.75;;;21.01;49.35
44027;BME280;29696;55.698;37.460;2022-08-19T01:43:05;100174.59;;;20.97;49.44
44027;BME280;29696;55.698;37.460;2022-08-19T01:45:33;100169.59;;;20.94;49.70
44027;BME280;29696;55.698;37.460;2022-08-19T01:48:01;100167.91;;;20.93;49.50
44027;BME280;29696;55.698;37.460;2022-08-19T01:50:29;100161.66;;;20.86;49.53
44027;BME280;29696;55.698;37.460;2022-08-19T01:52:56;100155.63;;;20.84;49.78
44027;BME280;29696;55.698;37.460;2022-08-19T01:55:22;100162.41;;;20.80;49.94
44027;BME280;29696;55.698;37.460;2022-08-19T01:57:55;100174.25;;;20.86;50.15
44027;BME280;29696;55.698;37.460;2022-08-19T02:00:26;100173.31;;;20.79;50.33
44027;BME280;29696;55.698;37.460;2022-08-19T02:02:53;100170.56;;;20.72;50.63
44027;BME280;29696;55.698;37.460;2022-08-19T02:05:20;100164.06;;;20.66;50.36
44027;BME280;29696;55.698;37.460;2022-08-19T02:07:47;100153.25;;;20.60;50.65
44027;BME280;29696;55.698;37.460;2022-08-19T02:10:18;100169.19;;;20.61;50.51
44027;BME280;29696;55.698;37.460;2022-08-19T02:12:45;100157.50;;;20.54;50.46
44027;BME280;29696;55.698;37.460;2022-08-19T02:15:12;100163.44;;;20.49;50.64
44027;BME280;29696;55.698;37.460;2022-08-19T02:17:39;100170.44;;;20.50;50.66
44027;BME280;29696;55.698;37.460;2022-08-19T02:20:06;100167.94;;;20.49;50.73
44027;BME280;29696;55.698;37.460;2022-08-19T02:22:34;100165.63;;;20.46;50.65
44027;BME280;29696;55.698;37.460;2022-08-19T02:25:02;100181.72;;;20.46;50.51
44027;BME280;29696;55.698;37.460;2022-08-19T02:27:30;100201.00;;;20.49;50.68
44027;BME280;29696;55.698;37.460;2022-08-19T02:29:56;100202.22;;;20.47;50.82
44027;BME280;29696;55.698;37.460;2022-08-19T02:32:23;100198.50;;;20.48;50.77
44027;BME280;29696;55.698;37.460;2022-08-19T02:34:49;100199.53;;;20.47;50.87
44027;BME280;29696;55.698;37.460;2022-08-19T02:37:15;100202.00;;;20.48;51.02
44027;BME280;29696;55.698;37.460;2022-08-19T02:40:00;100201.22;;;20.63;50.30
44027;BME280;29696;55.698;37.460;2022-08-19T02:42:27;100193.13;;;20.48;51.15
44027;BME280;29696;55.698;37.460;2022-08-19T02:44:55;100197.22;;;20.44;50.86
44027;BME280;29696;55.698;37.460;2022-08-19T02:47:21;100196.84;;;20.47;51.02
44027;BME280;29696;55.698;37.460;2022-08-19T02:49:48;100196.19;;;20.45;51.05
44027;BME280;29696;55.698;37.460;2022-08-19T02:52:16;100198.19;;;20.43;51.00
44027;BME280;29696;55.698;37.460;2022-08-19T02:54:43;100197.22;;;20.44;51.17
44027;BME280;29696;55.698;37.460;2022-08-19T02:57:10;100202.56;;;20.44;51.09
44027;BME280;29696;55.698;37.460;2022-08-19T02:59:36;100198.41;;;20.41;51.17
44027;BME280;29696;55.698;37.460;2022-08-19T03:02:02;100192.84;;;20.43;50.98
44027;BME280;29696;55.698;37.460;2022-08-19T03:04:29;100193.69;;;20.43;50.82
44027;BME280;29696;55.698;37.460;2022-08-19T03:06:55;100189.97;;;20.44;51.09
44027;BME280;29696;55.698;37.460;2022-08-19T03:09:21;100195.53;;;20.43;51.26
44027;BME280;29696;55.698;37.460;2022-08-19T03:11:48;100190.16;;;20.43;51.16
44027;BME280;29696;55.698;37.460;2022-08-19T03:14:14;100199.06;;;20.43;51.14
44027;BME280;29696;55.698;37.460;2022-08-19T03:16:44;100203.88;;;20.48;51.04
44027;BME280;29696;55.698;37.460;2022-08-19T03:19:10;100215.44;;;20.48;51.03
44027;BME280;29696;55.698;37.460;2022-08-19T03:21:36;100207.88;;;20.52;50.74
44027;BME280;29696;55.698;37.460;2022-08-19T03:24:06;100213.34;;;20.59;50.73
44027;BME280;29696;55.698;37.460;2022-08-19T03:26:33;100211.28;;;20.61;50.69
44027;BME280;29696;55.698;37.460;2022-08-19T03:29:04;100218.72;;;20.73;50.38
44027;BME280;29696;55.698;37.460;2022-08-19T03:31:31;100213.53;;;20.72;50.46
44027;BME280;29696;55.698;37.460;2022-08-19T03:33:58;100216.78;;;20.82;50.19
44027;BME280;29696;55.698;37.460;2022-08-19T03:36:26;100222.84;;;20.91;50.10
44027;BME280;29696;55.698;37.460;2022-08-19T03:38:55;100220.06;;;20.99;49.94
44027;BME280;29696;55.698;37.460;2022-08-19T03:41:35;100215.06;;;21.11;49.95
44027;BME280;29696;55.698;37.460;2022-08-19T03:44:02;100208.41;;;21.07;49.84
44027;BME280;29696;55.698;37.460;2022-08-19T03:46:32;100199.31;;;21.08;49.62
44027;BME280;29696;55.698;37.460;2022-08-19T03:49:02;100218.31;;;21.06;49.85
44027;BME280;29696;55.698;37.460;2022-08-19T03:51:37;100214.53;;;21.01;50.11
44027;BME280;29696;55.698;37.460;2022-08-19T03:54:06;100220.44;;;20.96;50.42
44027;BME280;29696;55.698;37.460;2022-08-19T03:56:38;100207.75;;;20.90;50.50
44027;BME280;29696;55.698;37.460;2022-08-19T03:59:06;100222.59;;;21.01;50.38
44027;BME280;29696;55.698;37.460;2022-08-19T04:01:34;100211.91;;;21.07;50.20
44027;BME280;29696;55.698;37.460;2022-08-19T04:04:01;100227.34;;;21.20;49.72
44027;BME280;29696;55.698;37.460;2022-08-19T04:06:34;100204.91;;;21.28;49.63
44027;BME280;29696;55.698;37.460;2022-08-19T04:09:03;100201.25;;;21.35;49.72
44027;BME280;29696;55.698;37.460;2022-08-19T04:11:35;100213.41;;;21.46;49.38
44027;BME280;29696;55.698;37.460;2022-08-19T04:14:02;100208.41;;;21.43;49.38
44027;BME280;29696;55.698;37.460;2022-08-19T04:16:29;100216.94;;;21.47;49.26
44027;BME280;29696;55.698;37.460;2022-08-19T04:18:56;100217.47;;;21.57;49.17
44027;BME280;29696;55.698;37.460;2022-08-19T04:21:25;100218.22;;;21.72;48.81
44027;BME280;29696;55.698;37.460;2022-08-19T04:23:53;100226.09;;;21.74;49.09
44027;BME280;29696;55.698;37.460;2022-08-19T04:26:27;100225.31;;;22.01;48.85
44027;BME280;29696;55.698;37.460;2022-08-19T04:28:54;100225.00;;;22.11;48.21
44027;BME280;29696;55.698;37.460;2022-08-19T04:31:24;100220.59;;;22.60;46.88
44027;BME280;29696;55.698;37.460;2022-08-19T04:34:03;100222.13;;;23.17;45.85
44027;BME280;29696;55.698;37.460;2022-08-19T04:36:32;100233.47;;;23.67;44.31
44027;BME280;29696;55.698;37.460;2022-08-19T04:39:03;100225.84;;;24.10;43.48
44027;BME280;29696;55.698;37.460;2022-08-19T04:41:30;100241.41;;;24.02;43.30
44027;BME280;29696;55.698;37.460;2022-08-19T04:44:15;100233.53;;;24.00;43.38
44027;BME280;29696;55.698;37.460;2022-08-19T04:46:48;100234.56;;;24.32;42.71
44027;BME280;29696;55.698;37.460;2022-08-19T04:49:16;100241.19;;;24.36;42.73
44027;BME280;29696;55.698;37.460;2022-08-19T04:51:44;100228.66;;;24.82;41.67
44027;BME280;29696;55.698;37.460;2022-08-19T04:54:12;100239.66;;;24.94;41.34
44027;BME280;29696;55.698;37.460;2022-08-19T04:56:40;100232.53;;;25.06;41.13
44027;BME280;29696;55.698;37.460;2022-08-19T04:59:07;100240.44;;;25.53;39.98
44027;BME280;29696;55.698;37.460;2022-08-19T05:01:34;100235.03;;;25.53;39.80
44027;BME280;29696;55.698;37.460;2022-08-19T05:04:04;100240.88;;;25.88;39.84
44027;BME280;29696;55.698;37.460;2022-08-19T05:06:32;100251.59;;;26.26;38.87
44027;BME280;29696;55.698;37.460;2022-08-19T05:09:02;100236.47;;;26.62;38.26
44027;BME280;29696;55.698;37.460;2022-08-19T05:11:34;100238.16;;;26.81;37.79
44027;BME280;29696;55.698;37.460;2022-08-19T05:14:01;100236.91;;;27.33;36.62
44027;BME280;29696;55.698;37.460;2022-08-19T05:16:27;100228.78;;;27.33;36.39
44027;BME280;29696;55.698;37.460;2022-08-19T05:18:54;100238.03;;;27.43;36.13
44027;BME280;29696;55.698;37.460;2022-08-19T05:21:41;100248.59;;;27.63;36.26
44027;BME280;29696;55.698;37.460;2022-08-19T05:24:26;100233.09;;;27.22;36.58
44027;BME280;29696;55.698;37.460;2022-08-19T05:26:54;100231.06;;;26.99;37.09
44027;BME280;29696;55.698;37.460;2022-08-19T05:29:24;100241.22;;;26.67;37.64
44027;BME280;29696;55.698;37.460;2022-08-19T05:31:52;100230.25;;;26.36;38.15
44027;BME280;29696;55.698;37.460;2022-08-19T05:34:20;100234.28;;;26.27;38.45
44027;BME280;29696;55.698;37.460;2022-08-19T05:36:49;100238.75;;;25.90;39.55
44027;BME280;29696;55.698;37.460;2022-08-19T05:39:19;100229.53;;;25.66;40.13
44027;BME280;29696;55.698;37.460;2022-08-19T05:41:50;100237.94;;;25.51;40.68
44027;BME280;29696;55.698;37.460;2022-08-19T05:44:19;100237.06;;;25.12;41.08
44027;BME280;29696;55.698;37.460;2022-08-19T05:46:47;100232.19;;;24.82;41.75
44027;BME280;29696;55.698;37.460;2022-08-19T05:49:15;100244.28;;;24.73;42.11
44027;BME280;29696;55.698;37.460;2022-08-19T05:51:42;100249.72;;;24.40;42.59
44027;BME280;29696;55.698;37.460;2022-08-19T05:54:09;100250.16;;;24.17;43.21
44027;BME280;29696;55.698;37.460;2022-08-19T05:56:37;100242.66;;;23.92;43.70
44027;BME280;29696;55.698;37.460;2022-08-19T05:59:09;100250.97;;;24.04;43.97
44027;BME280;29696;55.698;37.460;2022-08-19T06:01:38;100241.41;;;24.02;43.78
44027;BME280;29696;55.698;37.460;2022-08-19T06:04:05;100237.06;;;24.01;43.61
44027;BME280;29696;55.698;37.460;2022-08-19T06:06:33;100230.22;;;24.18;43.96
44027;BME280;29696;55.698;37.460;2022-08-19T06:09:05;100249.94;;;24.45;43.03
44027;BME280;29696;55.698;37.460;2022-08-19T06:11:53;100241.53;;;24.93;42.58
44027;BME280;29696;55.698;37.460;2022-08-19T06:14:23;100236.75;;;24.89;42.19
44027;BME280;29696;55.698;37.460;2022-08-19T06:16:50;100243.19;;;24.88;41.93
44027;BME280;29696;55.698;37.460;2022-08-19T06:19:20;100257.38;;;24.83;42.50
44027;BME280;29696;55.698;37.460;2022-08-19T06:21:49;100253.38;;;24.86;42.42
44027;BME280;29696;55.698;37.460;2022-08-19T06:24:18;100246.31;;;24.91;42.49
44027;BME280;29696;55.698;37.460;2022-08-19T06:26:47;100261.91;;;24.82;42.40
44027;BME280;29696;55.698;37.460;2022-08-19T06:29:16;100256.34;;;24.71;42.51
44027;BME280;29696;55.698;37.460;2022-08-19T06:31:47;100251.38;;;24.54;42.86
44027;BME280;29696;55.698;37.460;2022-08-19T06:34:16;100260.97;;;24.50;43.10
44027;BME280;29696;55.698;37.460;2022-08-19T06:36:45;100257.19;;;24.65;42.59
44027;BME280;29696;55.698;37.460;2022-08-19T06:39:18;100246.38;;;24.58;42.90
44027;BME280;29696;55.698;37.460;2022-08-19T06:41:48;100242.25;;;24.49;43.39
44027;BME280;29696;55.698;37.460;2022-08-19T06:44:22;100252.84;;;24.44;43.75
44027;BME280;29696;55.698;37.460;2022-08-19T06:46:49;100248.06;;;24.26;43.49
44027;BME280;29696;55.698;37.460;2022-08-19T06:49:17;100249.09;;;24.25;44.23
44027;BME280;29696;55.698;37.460;2022-08-19T06:51:45;100246.00;;;24.21;43.83
44027;BME280;29696;55.698;37.460;2022-08-19T06:54:14;100255.56;;;24.17;44.00
44027;BME280;29696;55.698;37.460;2022-08-19T06:56:41;100254.31;;;24.06;44.33
44027;BME280;29696;55.698;37.460;2022-08-19T06:59:11;100241.00;;;24.05;44.39
44027;BME280;29696;55.698;37.460;2022-08-19T07:01:41;100255.94;;;24.01;44.32
44027;BME280;29696;55.698;37.460;2022-08-19T07:04:09;100242.88;;;23.84;44.30
44027;BME280;29696;55.698;37.460;2022-08-19T07:06:36;100241.81;;;23.85;44.45
44027;BME280;29696;55.698;37.460;2022-08-19T07:09:05;100270.91;;;23.97;44.37
44027;BME280;29696;55.698;37.460;2022-08-19T07:11:32;100251.78;;;24.05;44.62
44027;BME280;29696;55.698;37.460;2022-08-19T07:14:00;100252.84;;;24.44;43.60
44027;BME280;29696;55.698;37.460;2022-08-19T07:16:27;100247.41;;;24.77;42.79
44027;BME280;29696;55.698;37.460;2022-08-19T07:18:54;100245.75;;;25.27;41.92
44027;BME280;29696;55.698;37.460;2022-08-19T07:21:23;100257.84;;;25.70;40.50
44027;BME280;29696;55.698;37.460;2022-08-19T07:23:50;100251.59;;;26.01;39.98
44027;BME280;29696;55.698;37.460;2022-08-19T07:26:23;100247.75;;;26.59;38.74
44027;BME280;29696;55.698;37.460;2022-08-19T07:28:50;100250.59;;;27.26;37.05
44027;BME280;29696;55.698;37.460;2022-08-19T07:31:19;100254.88;;;28.29;35.12
44027;BME280;29696;55.698;37.460;2022-08-19T07:33:47;100264.59;;;29.36;33.43
44027;BME280;29696;55.698;37.460;2022-08-19T07:36:15;100254.25;;;30.12;31.72
44027;BME280;29696;55.698;37.460;2022-08-19T07:38:45;100240.31;;;31.25;30.86
44027;BME280;29696;55.698;37.460;2022-08-19T07:41:19;100239.06;;;32.19;29.34
44027;BME280;29696;55.698;37.460;2022-08-19T07:43:47;100262.09;;;32.71;27.84
44027;BME280;29696;55.698;37.460;2022-08-19T07:46:14;100248.22;;;31.49;28.46
44027;BME280;29696;55.698;37.460;2022-08-19T07:48:44;100263.94;;;30.92;29.39
44027;BME280;29696;55.698;37.460;2022-08-19T07:51:16;100271.28;;;30.36;30.29
44027;BME280;29696;55.698;37.460;2022-08-19T07:53:44;100262.88;;;30.21;30.27
44027;BME280;29696;55.698;37.460;2022-08-19T07:56:14;100303.75;;;30.21;30.30
44027;BME280;29696;55.698;37.460;2022-08-19T07:58:43;100290.19;;;29.64;31.25
44027;BME280;29696;55.698;37.460;2022-08-19T08:01:13;100273.06;;;29.80;31.07
44027;BME280;29696;55.698;37.460;2022-08-19T08:03:40;100265.16;;;29.95;30.04
44027;BME280;29696;55.698;37.460;2022-08-19T08:06:25;100264.13;;;30.69;29.16
44027;BME280;29696;55.698;37.460;2022-08-19T08:09:11;100261.41;;;30.69;28.96
44027;BME280;29696;55.698;37.460;2022-08-19T08:11:44;100264.00;;;30.59;29.05
44027;BME280;29696;55.698;37.460;2022-08-19T08:14:21;100276.53;;;30.09;29.67
44027;BME280;29696;55.698;37.460;2022-08-19T08:16:49;100274.00;;;29.17;31.20
44027;BME280;29696;55.698;37.460;2022-08-19T08:19:21;100288.97;;;28.43;32.99
44027;BME280;29696;55.698;37.460;2022-08-19T08:21:49;100279.97;;;27.59;34.33
44027;BME280;29696;55.698;37.460;2022-08-19T08:24:16;100271.53;;;27.49;34.74
44027;BME280;29696;55.698;37.460;2022-08-19T08:26:43;100286.63;;;27.45;35.09
44027;BME280;29696;55.698;37.460;2022-08-19T08:29:11;100283.31;;;27.61;35.02
44027;BME280;29696;55.698;37.460;2022-08-19T08:31:43;100284.78;;;28.29;34.53
44027;BME280;29696;55.698;37.460;2022-08-19T08:34:11;100296.44;;;28.18;34.37
44027;BME280;29696;55.698;37.460;2022-08-19T08:36:39;100270.34;;;28.05;34.68
44027;BME280;29696;55.698;37.460;2022-08-19T08:39:09;100288.16;;;28.01;34.59
44027;BME280;29696;55.698;37.460;2022-08-19T08:42:01;100280.13;;;27.94;35.04
44027;BME280;29696;55.698;37.460;2022-08-19T08:47:45;100272.38;;;27.19;36.64
44027;BME280;29696;55.698;37.460;2022-08-19T08:53:06;100265.56;;;26.73;37.54
44027;BME280;29696;55.698;37.460;2022-08-19T08:55:34;100271.94;;;26.60;37.28
44027;BME280;29696;55.698;37.460;2022-08-19T08:58:04;100270.97;;;26.73;37.15
44027;BME280;29696;55.698;37.460;2022-08-19T09:00:41;100267.97;;;26.81;37.03
44027;BME280;29696;55.698;37.460;2022-08-19T09:03:28;100277.53;;;26.84;36.58
44027;BME280;29696;55.698;37.460;2022-08-19T09:06:20;100275.41;;;26.68;36.98
44027;BME280;29696;55.698;37.460;2022-08-19T09:08:59;100265.00;;;26.64;37.09
44027;BME280;29696;55.698;37.460;2022-08-19T09:14:43;100265.56;;;26.73;36.17
44027;BME280;29696;55.698;37.460;2022-08-19T09:17:12;100289.28;;;26.78;35.86
44027;BME280;29696;55.698;37.460;2022-08-19T09:22:45;100271.59;;;26.94;35.72
44027;BME280;29696;55.698;37.460;2022-08-19T09:25:16;100281.97;;;26.97;35.42
44027;BME280;29696;55.698;37.460;2022-08-19T09:27:43;100282.88;;;26.91;35.31
44027;BME280;29696;55.698;37.460;2022-08-19T09:30:22;100285.88;;;27.01;35.40
44027;BME280;29696;55.698;37.460;2022-08-19T09:32:50;100280.00;;;26.67;35.49
44027;BME280;29696;55.698;37.460;2022-08-19T09:35:23;100311.03;;;26.71;35.09
44027;BME280;29696;55.698;37.460;2022-08-19T09:37:51;100314.19;;;26.43;35.78
44027;BME280;29696;55.698;37.460;2022-08-19T09:40:18;100322.69;;;26.22;36.14
44027;BME280;29696;55.698;37.460;2022-08-19T09:42:45;100313.75;;;26.14;36.52
44027;BME280;29696;55.698;37.460;2022-08-19T09:45:14;100297.75;;;26.13;36.94
44027;BME280;29696;55.698;37.460;2022-08-19T09:47:42;100289.91;;;26.30;37.21
44027;BME280;29696;55.698;37.460;2022-08-19T09:50:11;100289.63;;;26.38;36.78
44027;BME280;29696;55.698;37.460;2022-08-19T09:52:38;100290.47;;;26.38;36.79
44027;BME280;29696;55.698;37.460;2022-08-19T09:55:07;100302.41;;;26.56;36.53
44027;BME280;29696;55.698;37.460;2022-08-19T09:57:34;100281.66;;;26.43;36.50
44027;BME280;29696;55.698;37.460;2022-08-19T10:00:02;100300.63;;;26.43;36.16
44027;BME280;29696;55.698;37.460;2022-08-19T10:02:34;100289.50;;;26.26;36.49
44027;BME280;29696;55.698;37.460;2022-08-19T10:05:01;100302.91;;;26.21;36.52
44027;BME280;29696;55.698;37.460;2022-08-19T10:07:46;100289.38;;;26.21;35.30
44027;BME280;29696;55.698;37.460;2022-08-19T10:10:12;100353.75;;;26.19;33.35
44027;BME280;29696;55.698;37.460;2022-08-19T10:12:39;100300.22;;;26.14;31.43
44027;BME280;29696;55.698;37.460;2022-08-19T10:15:05;100293.41;;;26.12;30.72
44027;BME280;29696;55.698;37.460;2022-08-19T10:17:32;100303.16;;;26.13;30.16
44027;BME280;29696;55.698;37.460;2022-08-19T10:20:01;100309.53;;;26.00;29.73
44027;BME280;29696;55.698;37.460;2022-08-19T10:22:30;100281.50;;;26.13;30.09
44027;BME280;29696;55.698;37.460;2022-08-19T10:24:57;100288.19;;;26.35;29.83
44027;BME280;29696;55.698;37.460;2022-08-19T10:27:23;100301.41;;;26.50;29.67
44027;BME280;29696;55.698;37.460;2022-08-19T10:29:49;100313.50;;;26.54;30.14
44027;BME280;29696;55.698;37.460;2022-08-19T10:32:16;100300.31;;;26.58;30.24
44027;BME280;29696;55.698;37.460;2022-08-19T10:34:42;100305.75;;;26.58;28.81
44027;BME280;29696;55.698;37.460;2022-08-19T10:37:08;100310.81;;;26.48;28.43
44027;BME280;29696;55.698;37.460;2022-08-19T10:39:35;100312.28;;;26.44;27.75
44027;BME280;29696;55.698;37.460;2022-08-19T10:42:06;100317.50;;;26.45;26.20
44027;BME280;29696;55.698;37.460;2022-08-19T10:44:33;100350.78;;;26.27;26.85
44027;BME280;29696;55.698;37.460;2022-08-19T10:47:02;100309.22;;;26.15;26.46
44027;BME280;29696;55.698;37.460;2022-08-19T10:49:29;100303.16;;;26.13;26.97
44027;BME280;29696;55.698;37.460;2022-08-19T10:51:56;100329.19;;;26.14;26.43
44027;BME280;29696;55.698;37.460;2022-08-19T10:54:41;100320.03;;;26.15;26.08
44027;BME280;29696;55.698;37.460;2022-08-19T10:57:30;100334.34;;;26.22;25.73
44027;BME280;29696;55.698;37.460;2022-08-19T10:59:57;100297.69;;;26.19;25.56
44027;BME280;29696;55.698;37.460;2022-08-19T11:02:23;100313.56;;;26.16;26.06
44027;BME280;29696;55.698;37.460;2022-08-19T11:04:49;100329.94;;;26.28;25.72
44027;BME280;29696;55.698;37.460;2022-08-19T11:07:17;100333.03;;;26.31;25.64
44027;BME280;29696;55.698;37.460;2022-08-19T11:09:43;100322.00;;;26.33;25.47
44027;BME280;29696;55.698;37.460;2022-08-19T11:12:10;100319.22;;;26.39;25.58
44027;BME280;29696;55.698;37.460;2022-08-19T11:14:36;100304.28;;;26.30;25.51
44027;BME280;29696;55.698;37.460;2022-08-19T11:17:04;100297.00;;;26.31;25.50
44027;BME280;29696;55.698;37.460;2022-08-19T11:19:31;100296.91;;;26.37;25.53
44027;BME280;29696;55.698;37.460;2022-08-19T11:21:57;100304.09;;;26.57;25.27
44027;BME280;29696;55.698;37.460;2022-08-19T11:24:29;100296.63;;;26.52;24.58
44027;BME280;29696;55.698;37.460;2022-08-19T11:27:01;100312.59;;;26.60;24.99
44027;BME280;29696;55.698;37.460;2022-08-19T11:29:28;100291.06;;;26.40;25.49
44027;BME280;29696;55.698;37.460;2022-08-19T11:31:55;100281.03;;;26.41;25.71
44027;BME280;29696;55.698;37.460;2022-08-19T11:34:24;100302.84;;;26.53;25.91
44027;BME280;29696;55.698;37.460;2022-08-19T11:36:51;100291.00;;;26.47;26.40
44027;BME280;29696;55.698;37.460;2022-08-19T11:39:20;100298.72;;;26.50;26.25
44027;BME280;29696;55.698;37.460;2022-08-19T11:41:47;100302.16;;;26.32;26.81
44027;BME280;29696;55.698;37.460;2022-08-19T11:44:14;100293.66;;;26.29;26.79
44027;BME280;29696;55.698;37.460;2022-08-19T11:46:42;100309.91;;;26.29;27.04
44027;BME280;29696;55.698;37.460;2022-08-19T11:49:14;100305.56;;;26.28;27.36
44027;BME280;29696;55.698;37.460;2022-08-19T11:51:42;100300.31;;;26.33;27.36
44027;BME280;29696;55.698;37.460;2022-08-19T11:54:10;100296.16;;;26.30;27.56
44027;BME280;29696;55.698;37.460;2022-08-19T11:56:37;100299.00;;;26.35;27.90
44027;BME280;29696;55.698;37.460;2022-08-19T11:59:04;100293.69;;;26.47;27.69
44027;BME280;29696;55.698;37.460;2022-08-19T12:01:30;100309.97;;;26.47;27.58
44027;BME280;29696;55.698;37.460;2022-08-19T12:03:57;100286.34;;;26.29;28.25
44027;BME280;29696;55.698;37.460;2022-08-19T12:06:29;100300.75;;;26.30;28.23
44027;BME280;29696;55.698;37.460;2022-08-19T12:08:57;100282.88;;;26.22;28.93
44027;BME280;29696;55.698;37.460;2022-08-19T12:11:24;100286.09;;;26.37;28.95
44027;BME280;29696;55.698;37.460;2022-08-19T12:13:51;100290.63;;;26.44;28.89
44027;BME280;29696;55.698;37.460;2022-08-19T12:16:21;100311.03;;;26.46;29.45
44027;BME280;29696;55.698;37.460;2022-08-19T12:18:48;100283.81;;;26.34;29.90
44027;BME280;29696;55.698;37.460;2022-08-19T12:21:20;100306.19;;;26.23;29.78
44027;BME280;29696;55.698;37.460;2022-08-19T12:23:49;100288.41;;;26.09;30.49
44027;BME280;29696;55.698;37.460;2022-08-19T12:26:16;100303.88;;;26.02;31.01
44027;BME280;29696;55.698;37.460;2022-08-19T12:28:43;100275.84;;;25.89;30.98
44027;BME280;29696;55.698;37.460;2022-08-19T12:31:10;100287.34;;;25.85;31.13
44027;BME280;29696;55.698;37.460;2022-08-19T12:33:41;100273.50;;;25.93;31.51
44027;BME280;29696;55.698;37.460;2022-08-19T12:36:10;100281.56;;;26.06;31.51
44027;BME280;29696;55.698;37.460;2022-08-19T12:38:37;100280.50;;;26.07;32.07
44027;BME280;29696;55.698;37.460;2022-08-19T12:41:05;100287.97;;;26.12;31.93
44027;BME280;29696;55.698;37.460;2022-08-19T12:43:33;100283.69;;;25.98;32.38
44027;BME280;29696;55.698;37.460;2022-08-19T12:46:02;100280.44;;;25.89;32.80
44027;BME280;29696;55.698;37.460;2022-08-19T12:48:31;100275.91;;;25.76;33.20
44027;BME280;29696;55.698;37.460;2022-08-19T12:50:58;100269.88;;;25.74;33.39
44027;BME280;29696;55.698;37.460;2022-08-19T12:53:24;100280.88;;;25.79;33.57
44027;BME280;29696;55.698;37.460;2022-08-19T12:55:58;100276.06;;;25.88;33.48
44027;BME280;29696;55.698;37.460;2022-08-19T12:58:26;100272.75;;;25.86;33.59
44027;BME280;29696;55.698;37.460;2022-08-19T13:00:53;100267.66;;;25.96;33.70
44027;BME280;29696;55.698;37.460;2022-08-19T13:03:19;100272.88;;;25.98;33.89